sensor_id;sensor_type;location;lat;lon;timestamp;P1;durP1;ratioP1;P2;durP2;ratioP2
22955;SDS011;40888;48.148;11.526;2023-04-22T00:00:29;1.97;;;1.67;;
22955;SDS011;40888;48.148;11.526;2023-04-22T00:02:57;4.17;;;2.80;;
22955;SDS011;40888;48.148;11.526;2023-04-22T00:05:23;6.70;;;2.53;;
22955;SDS011;40888;48.148;11.526;2023-04-22T00:07:49;4.50;;;1.87;;
22955;SDS011;40888;48.148;11.526;2023-04-22T00:10:15;3.27;;;2.17;;
22955;SDS011;40888;48.148;11.526;2023-04-22T00:12:40;3.07;;;1.93;;
22955;SDS011;40888;48.148;11.526;2023-04-22T00:15:06;2.83;;;2.20;;
22955;SDS011;40888;48.148;11.526;2023-04-22T00:17:32;2.37;;;2.00;;
22955;SDS011;40888;48.148;11.526;2023-04-22T00:19:58;3.30;;;2.03;;
22955;SDS011;40888;48.148;11.526;2023-04-22T00:22:25;2.77;;;1.70;;
22955;SDS011;40888;48.148;11.526;2023-04-22T00:24:51;1.87;;;1.57;;
22955;SDS011;40888;48.148;11.526;2023-04-22T00:27:17;4.50;;;2.40;;
22955;SDS011;40888;48.148;11.526;2023-04-22T00:29:42;3.73;;;2.00;;
22955;SDS011;40888;48.148;11.526;2023-04-22T00:32:08;6.27;;;2.13;;
22955;SDS011;40888;48.148;11.526;2023-04-22T00:34:34;3.53;;;1.80;;
22955;SDS011;40888;48.148;11.526;2023-04-22T00:37:00;2.63;;;1.90;;
22955;SDS011;40888;48.148;11.526;2023-04-22T00:39:26;2.00;;;1.67;;
22955;SDS011;40888;48.148;11.526;2023-04-22T00:41:52;4.97;;;2.20;;
22955;SDS011;40888;48.148;11.526;2023-04-22T00:44:17;1.63;;;1.50;;
22955;SDS011;40888;48.148;11.526;2023-04-22T00:46:43;1.80;;;1.70;;
22955;SDS011;40888;48.148;11.526;2023-04-22T00:49:10;2.13;;;1.80;;
22955;SDS011;40888;48.148;11.526;2023-04-22T00:51:35;2.30;;;1.90;;
22955;SDS011;40888;48.148;11.526;2023-04-22T00:54:01;3.67;;;2.20;;
22955;SDS011;40888;48.148;11.526;2023-04-22T00:56:28;4.07;;;1.93;;
22955;SDS011;40888;48.148;11.526;2023-04-22T00:58:56;4.10;;;1.97;;
22955;SDS011;40888;48.148;11.526;2023-04-22T01:01:22;4.90;;;2.30;;
22955;SDS011;40888;48.148;11.526;2023-04-22T01:03:48;3.13;;;2.20;;
22955;SDS011;40888;48.148;11.526;2023-04-22T01:06:18;2.77;;;2.57;;
22955;SDS011;40888;48.148;11.526;2023-04-22T01:08:46;3.60;;;2.20;;
22955;SDS011;40888;48.148;11.526;2023-04-22T01:11:12;3.80;;;2.47;;
22955;SDS011;40888;48.148;11.526;2023-04-22T01:13:38;3.70;;;2.67;;
22955;SDS011;40888;48.148;11.526;2023-04-22T01:16:04;3.87;;;1.90;;
22955;SDS011;40888;48.148;11.526;2023-04-22T01:18:33;3.40;;;2.10;;
22955;SDS011;40888;48.148;11.526;2023-04-22T01:21:00;3.03;;;2.27;;
22955;SDS011;40888;48.148;11.526;2023-04-22T01:23:26;2.60;;;1.93;;
22955;SDS011;40888;48.148;11.526;2023-04-22T01:25:52;5.83;;;1.50;;
22955;SDS011;40888;48.148;11.526;2023-04-22T01:28:18;2.80;;;1.70;;
22955;SDS011;40888;48.148;11.526;2023-04-22T01:30:44;2.13;;;1.77;;
22955;SDS011;40888;48.148;11.526;2023-04-22T01:33:10;3.47;;;2.10;;
22955;SDS011;40888;48.148;11.526;2023-04-22T01:35:36;3.87;;;1.83;;
22955;SDS011;40888;48.148;11.526;2023-04-22T01:38:03;3.30;;;2.10;;
22955;SDS011;40888;48.148;11.526;2023-04-22T01:40:30;2.80;;;1.90;;
22955;SDS011;40888;48.148;11.526;2023-04-22T01:43:00;4.97;;;1.90;;
22955;SDS011;40888;48.148;11.526;2023-04-22T01:45:27;4.07;;;1.70;;
22955;SDS011;40888;48.148;11.526;2023-04-22T01:47:53;2.57;;;2.30;;
22955;SDS011;40888;48.148;11.526;2023-04-22T01:50:19;3.93;;;2.20;;
22955;SDS011;40888;48.148;11.526;2023-04-22T01:52:45;3.23;;;2.10;;
22955;SDS011;40888;48.148;11.526;2023-04-22T01:55:11;5.23;;;2.53;;
22955;SDS011;40888;48.148;11.526;2023-04-22T01:57:37;3.37;;;2.40;;
22955;SDS011;40888;48.148;11.526;2023-04-22T02:00:03;2.43;;;2.23;;
22955;SDS011;40888;48.148;11.526;2023-04-22T02:02:30;2.77;;;2.27;;
22955;SDS011;40888;48.148;11.526;2023-04-22T02:04:56;4.40;;;2.60;;
22955;SDS011;40888;48.148;11.526;2023-04-22T02:07:21;2.97;;;2.50;;
22955;SDS011;40888;48.148;11.526;2023-04-22T02:09:48;2.60;;;2.30;;
22955;SDS011;40888;48.148;11.526;2023-04-22T02:12:14;3.73;;;2.00;;
22955;SDS011;40888;48.148;11.526;2023-04-22T02:14:40;4.80;;;2.30;;
22955;SDS011;40888;48.148;11.526;2023-04-22T02:17:05;3.73;;;2.00;;
22955;SDS011;40888;48.148;11.526;2023-04-22T02:19:31;3.67;;;2.57;;
22955;SDS011;40888;48.148;11.526;2023-04-22T02:21:57;3.77;;;2.13;;
22955;SDS011;40888;48.148;11.526;2023-04-22T02:24:23;3.17;;;2.10;;
22955;SDS011;40888;48.148;11.526;2023-04-22T02:26:49;1.53;;;1.43;;
22955;SDS011;40888;48.148;11.526;2023-04-22T02:29:15;1.90;;;1.50;;
22955;SDS011;40888;48.148;11.526;2023-04-22T02:31:41;2.53;;;1.60;;
22955;SDS011;40888;48.148;11.526;2023-04-22T02:34:07;2.73;;;1.93;;
22955;SDS011;40888;48.148;11.526;2023-04-22T02:36:32;4.33;;;1.87;;
22955;SDS011;40888;48.148;11.526;2023-04-22T02:39:01;1.80;;;1.47;;
22955;SDS011;40888;48.148;11.526;2023-04-22T02:41:30;1.60;;;1.50;;
22955;SDS011;40888;48.148;11.526;2023-04-22T02:43:56;2.37;;;1.90;;
22955;SDS011;40888;48.148;11.526;2023-04-22T02:46:22;1.80;;;1.70;;
22955;SDS011;40888;48.148;11.526;2023-04-22T02:48:48;2.00;;;1.80;;
22955;SDS011;40888;48.148;11.526;2023-04-22T02:51:13;1.97;;;1.73;;
22955;SDS011;40888;48.148;11.526;2023-04-22T02:53:39;1.50;;;1.23;;
22955;SDS011;40888;48.148;11.526;2023-04-22T02:56:05;2.83;;;1.53;;
22955;SDS011;40888;48.148;11.526;2023-04-22T02:58:32;3.70;;;1.90;;
22955;SDS011;40888;48.148;11.526;2023-04-22T03:00:58;2.30;;;1.97;;
22955;SDS011;40888;48.148;11.526;2023-04-22T03:03:24;3.17;;;1.87;;
22955;SDS011;40888;48.148;11.526;2023-04-22T03:05:50;4.53;;;2.03;;
22955;SDS011;40888;48.148;11.526;2023-04-22T03:08:16;2.50;;;1.60;;
22955;SDS011;40888;48.148;11.526;2023-04-22T03:10:43;1.97;;;1.77;;
22955;SDS011;40888;48.148;11.526;2023-04-22T03:13:08;2.60;;;2.17;;
22955;SDS011;40888;48.148;11.526;2023-04-22T03:15:34;4.37;;;2.10;;
22955;SDS011;40888;48.148;11.526;2023-04-22T03:18:00;3.07;;;1.93;;
22955;SDS011;40888;48.148;11.526;2023-04-22T03:20:25;1.90;;;1.80;;
22955;SDS011;40888;48.148;11.526;2023-04-22T03:22:51;3.07;;;1.87;;
22955;SDS011;40888;48.148;11.526;2023-04-22T03:25:17;2.47;;;2.00;;
22955;SDS011;40888;48.148;11.526;2023-04-22T03:27:43;2.47;;;1.90;;
22955;SDS011;40888;48.148;11.526;2023-04-22T03:30:08;2.23;;;1.80;;
22955;SDS011;40888;48.148;11.526;2023-04-22T03:32:34;1.90;;;1.80;;
22955;SDS011;40888;48.148;11.526;2023-04-22T03:35:00;2.70;;;1.90;;
22955;SDS011;40888;48.148;11.526;2023-04-22T03:37:26;2.03;;;1.80;;
22955;SDS011;40888;48.148;11.526;2023-04-22T03:39:52;2.03;;;1.83;;
22955;SDS011;40888;48.148;11.526;2023-04-22T03:42:18;2.30;;;1.60;;
22955;SDS011;40888;48.148;11.526;2023-04-22T03:44:44;1.70;;;1.60;;
22955;SDS011;40888;48.148;11.526;2023-04-22T03:47:10;1.93;;;1.83;;
22955;SDS011;40888;48.148;11.526;2023-04-22T03:49:35;2.00;;;1.80;;
22955;SDS011;40888;48.148;11.526;2023-04-22T03:52:01;2.57;;;2.13;;
22955;SDS011;40888;48.148;11.526;2023-04-22T03:54:27;2.13;;;1.80;;
22955;SDS011;40888;48.148;11.526;2023-04-22T03:56:53;2.70;;;1.80;;
22955;SDS011;40888;48.148;11.526;2023-04-22T03:59:19;1.70;;;1.60;;
22955;SDS011;40888;48.148;11.526;2023-04-22T04:01:45;2.80;;;2.03;;
22955;SDS011;40888;48.148;11.526;2023-04-22T04:04:11;1.80;;;1.70;;
22955;SDS011;40888;48.148;11.526;2023-04-22T04:06:37;1.70;;;1.60;;
22955;SDS011;40888;48.148;11.526;2023-04-22T04:09:03;2.20;;;2.00;;
22955;SDS011;40888;48.148;11.526;2023-04-22T04:11:29;5.53;;;1.90;;
22955;SDS011;40888;48.148;11.526;2023-04-22T04:13:55;2.13;;;1.63;;
22955;SDS011;40888;48.148;11.526;2023-04-22T04:16:21;3.20;;;1.73;;
22955;SDS011;40888;48.148;11.526;2023-04-22T04:18:50;3.03;;;1.77;;
22955;SDS011;40888;48.148;11.526;2023-04-22T04:21:16;2.13;;;1.80;;
22955;SDS011;40888;48.148;11.526;2023-04-22T04:23:42;2.17;;;1.70;;
22955;SDS011;40888;48.148;11.526;2023-04-22T04:26:08;2.10;;;1.90;;
22955;SDS011;40888;48.148;11.526;2023-04-22T04:28:35;2.57;;;1.83;;
22955;SDS011;40888;48.148;11.526;2023-04-22T04:31:00;2.33;;;1.80;;
22955;SDS011;40888;48.148;11.526;2023-04-22T04:33:29;1.87;;;1.73;;
22955;SDS011;40888;48.148;11.526;2023-04-22T04:35:56;2.97;;;1.90;;
22955;SDS011;40888;48.148;11.526;2023-04-22T04:38:23;3.03;;;1.73;;
22955;SDS011;40888;48.148;11.526;2023-04-22T04:40:50;2.87;;;1.83;;
22955;SDS011;40888;48.148;11.526;2023-04-22T04:43:16;1.77;;;1.67;;
22955;SDS011;40888;48.148;11.526;2023-04-22T04:45:42;2.40;;;1.87;;
22955;SDS011;40888;48.148;11.526;2023-04-22T04:48:12;3.27;;;2.00;;
22955;SDS011;40888;48.148;11.526;2023-04-22T04:50:40;2.43;;;1.93;;
22955;SDS011;40888;48.148;11.526;2023-04-22T04:53:06;2.87;;;1.90;;
22955;SDS011;40888;48.148;11.526;2023-04-22T04:55:33;4.33;;;1.87;;
22955;SDS011;40888;48.148;11.526;2023-04-22T04:57:59;1.70;;;1.60;;
22955;SDS011;40888;48.148;11.526;2023-04-22T05:00:24;1.97;;;1.77;;
22955;SDS011;40888;48.148;11.526;2023-04-22T05:02:50;1.90;;;1.80;;
22955;SDS011;40888;48.148;11.526;2023-04-22T05:05:16;3.17;;;1.87;;
22955;SDS011;40888;48.148;11.526;2023-04-22T05:07:42;2.30;;;1.93;;
22955;SDS011;40888;48.148;11.526;2023-04-22T05:10:07;3.23;;;1.77;;
22955;SDS011;40888;48.148;11.526;2023-04-22T05:12:34;2.00;;;1.53;;
22955;SDS011;40888;48.148;11.526;2023-04-22T05:14:59;1.50;;;1.40;;
22955;SDS011;40888;48.148;11.526;2023-04-22T05:17:25;2.00;;;1.80;;
22955;SDS011;40888;48.148;11.526;2023-04-22T05:19:52;3.67;;;2.10;;
22955;SDS011;40888;48.148;11.526;2023-04-22T05:22:17;4.90;;;1.80;;
22955;SDS011;40888;48.148;11.526;2023-04-22T05:24:43;1.50;;;1.40;;
22955;SDS011;40888;48.148;11.526;2023-04-22T05:27:09;2.20;;;1.70;;
22955;SDS011;40888;48.148;11.526;2023-04-22T05:29:35;2.30;;;1.70;;
22955;SDS011;40888;48.148;11.526;2023-04-22T05:32:01;4.27;;;1.87;;
22955;SDS011;40888;48.148;11.526;2023-04-22T05:34:27;2.50;;;1.97;;
22955;SDS011;40888;48.148;11.526;2023-04-22T05:36:52;3.23;;;1.70;;
22955;SDS011;40888;48.148;11.526;2023-04-22T05:39:18;1.70;;;1.50;;
22955;SDS011;40888;48.148;11.526;2023-04-22T05:41:44;1.73;;;1.63;;
22955;SDS011;40888;48.148;11.526;2023-04-22T05:44:10;2.00;;;1.80;;
22955;SDS011;40888;48.148;11.526;2023-04-22T05:46:36;2.73;;;1.60;;
22955;SDS011;40888;48.148;11.526;2023-04-22T05:49:02;4.30;;;2.07;;
22955;SDS011;40888;48.148;11.526;2023-04-22T05:51:28;3.93;;;1.40;;
22955;SDS011;40888;48.148;11.526;2023-04-22T05:53:53;1.77;;;1.63;;
22955;SDS011;40888;48.148;11.526;2023-04-22T05:56:19;1.50;;;1.30;;
22955;SDS011;40888;48.148;11.526;2023-04-22T05:58:45;1.40;;;1.30;;
22955;SDS011;40888;48.148;11.526;2023-04-22T06:01:11;4.83;;;1.50;;
22955;SDS011;40888;48.148;11.526;2023-04-22T06:03:37;1.50;;;1.40;;
22955;SDS011;40888;48.148;11.526;2023-04-22T06:06:03;1.80;;;1.40;;
22955;SDS011;40888;48.148;11.526;2023-04-22T06:08:30;2.93;;;1.40;;
22955;SDS011;40888;48.148;11.526;2023-04-22T06:10:56;1.27;;;1.17;;
22955;SDS011;40888;48.148;11.526;2023-04-22T06:13:22;2.93;;;1.50;;
22955;SDS011;40888;48.148;11.526;2023-04-22T06:15:47;3.63;;;1.13;;
22955;SDS011;40888;48.148;11.526;2023-04-22T06:18:13;1.53;;;1.27;;
22955;SDS011;40888;48.148;11.526;2023-04-22T06:20:39;1.50;;;1.33;;
22955;SDS011;40888;48.148;11.526;2023-04-22T06:23:05;1.47;;;1.00;;
22955;SDS011;40888;48.148;11.526;2023-04-22T06:25:31;1.20;;;1.10;;
22955;SDS011;40888;48.148;11.526;2023-04-22T06:28:00;2.67;;;1.30;;
22955;SDS011;40888;48.148;11.526;2023-04-22T06:30:26;1.50;;;1.07;;
22955;SDS011;40888;48.148;11.526;2023-04-22T06:32:52;1.20;;;1.00;;
22955;SDS011;40888;48.148;11.526;2023-04-22T06:35:19;1.10;;;1.00;;
22955;SDS011;40888;48.148;11.526;2023-04-22T06:37:46;0.90;;;0.90;;
22955;SDS011;40888;48.148;11.526;2023-04-22T06:40:13;0.90;;;0.90;;
22955;SDS011;40888;48.148;11.526;2023-04-22T06:42:39;0.90;;;0.90;;
22955;SDS011;40888;48.148;11.526;2023-04-22T06:45:05;1.70;;;0.90;;
22955;SDS011;40888;48.148;11.526;2023-04-22T06:47:33;1.03;;;1.00;;
22955;SDS011;40888;48.148;11.526;2023-04-22T06:50:00;1.33;;;0.83;;
22955;SDS011;40888;48.148;11.526;2023-04-22T06:52:26;0.90;;;0.90;;
22955;SDS011;40888;48.148;11.526;2023-04-22T06:54:52;2.13;;;0.97;;
22955;SDS011;40888;48.148;11.526;2023-04-22T06:57:17;1.10;;;0.97;;
22955;SDS011;40888;48.148;11.526;2023-04-22T06:59:43;1.10;;;1.00;;
22955;SDS011;40888;48.148;11.526;2023-04-22T07:02:09;1.33;;;1.23;;
22955;SDS011;40888;48.148;11.526;2023-04-22T07:04:35;1.17;;;1.07;;
22955;SDS011;40888;48.148;11.526;2023-04-22T07:07:01;1.30;;;1.20;;
22955;SDS011;40888;48.148;11.526;2023-04-22T07:09:27;1.20;;;1.10;;
22955;SDS011;40888;48.148;11.526;2023-04-22T07:11:53;1.00;;;0.90;;
22955;SDS011;40888;48.148;11.526;2023-04-22T07:14:19;1.73;;;0.80;;
22955;SDS011;40888;48.148;11.526;2023-04-22T07:16:45;0.90;;;0.90;;
22955;SDS011;40888;48.148;11.526;2023-04-22T07:19:11;2.97;;;1.20;;
22955;SDS011;40888;48.148;11.526;2023-04-22T07:21:36;1.50;;;1.37;;
22955;SDS011;40888;48.148;11.526;2023-04-22T07:24:02;1.80;;;0.70;;
22955;SDS011;40888;48.148;11.526;2023-04-22T07:26:28;3.03;;;1.20;;
22955;SDS011;40888;48.148;11.526;2023-04-22T07:28:56;1.40;;;1.20;;
22955;SDS011;40888;48.148;11.526;2023-04-22T07:31:22;3.93;;;1.23;;
22955;SDS011;40888;48.148;11.526;2023-04-22T07:33:47;0.90;;;0.90;;
22955;SDS011;40888;48.148;11.526;2023-04-22T07:36:13;2.73;;;1.20;;
22955;SDS011;40888;48.148;11.526;2023-04-22T07:38:39;1.20;;;1.10;;
22955;SDS011;40888;48.148;11.526;2023-04-22T07:41:05;2.33;;;1.40;;
22955;SDS011;40888;48.148;11.526;2023-04-22T07:43:31;1.87;;;1.10;;
22955;SDS011;40888;48.148;11.526;2023-04-22T07:45:57;2.27;;;1.10;;
22955;SDS011;40888;48.148;11.526;2023-04-22T07:48:23;1.20;;;1.10;;
22955;SDS011;40888;48.148;11.526;2023-04-22T07:50:48;2.47;;;1.30;;
22955;SDS011;40888;48.148;11.526;2023-04-22T07:53:14;3.10;;;1.00;;
22955;SDS011;40888;48.148;11.526;2023-04-22T07:55:41;1.20;;;1.10;;
22955;SDS011;40888;48.148;11.526;2023-04-22T07:58:07;1.57;;;1.40;;
22955;SDS011;40888;48.148;11.526;2023-04-22T08:00:33;1.30;;;1.20;;
22955;SDS011;40888;48.148;11.526;2023-04-22T08:02:59;1.67;;;1.20;;
22955;SDS011;40888;48.148;11.526;2023-04-22T08:05:26;2.20;;;1.33;;
22955;SDS011;40888;48.148;11.526;2023-04-22T08:07:51;3.03;;;1.10;;
22955;SDS011;40888;48.148;11.526;2023-04-22T08:10:17;1.02;;;0.98;;
22955;SDS011;40888;48.148;11.526;2023-04-22T08:12:43;1.38;;;1.00;;
22955;SDS011;40888;48.148;11.526;2023-04-22T08:15:09;1.58;;;1.40;;
22955;SDS011;40888;48.148;11.526;2023-04-22T08:17:35;1.33;;;1.23;;
22955;SDS011;40888;48.148;11.526;2023-04-22T08:20:00;1.42;;;1.20;;
22955;SDS011;40888;48.148;11.526;2023-04-22T08:22:26;1.97;;;0.80;;
22955;SDS011;40888;48.148;11.526;2023-04-22T08:24:52;2.08;;;0.98;;
22955;SDS011;40888;48.148;11.526;2023-04-22T08:27:19;1.08;;;1.05;;
22955;SDS011;40888;48.148;11.526;2023-04-22T08:29:45;1.40;;;1.30;;
22955;SDS011;40888;48.148;11.526;2023-04-22T08:32:11;2.72;;;1.40;;
22955;SDS011;40888;48.148;11.526;2023-04-22T08:34:37;2.15;;;1.35;;
22955;SDS011;40888;48.148;11.526;2023-04-22T08:37:03;1.90;;;1.30;;
22955;SDS011;40888;48.148;11.526;2023-04-22T08:39:28;3.38;;;1.60;;
22955;SDS011;40888;48.148;11.526;2023-04-22T08:41:54;3.05;;;0.95;;
22955;SDS011;40888;48.148;11.526;2023-04-22T08:44:22;1.10;;;1.10;;
22955;SDS011;40888;48.148;11.526;2023-04-22T08:46:48;1.27;;;1.10;;
22955;SDS011;40888;48.148;11.526;2023-04-22T08:49:15;1.73;;;1.25;;
22955;SDS011;40888;48.148;11.526;2023-04-22T08:51:41;0.85;;;0.85;;
22955;SDS011;40888;48.148;11.526;2023-04-22T08:54:08;1.33;;;1.10;;
22955;SDS011;40888;48.148;11.526;2023-04-22T08:56:35;1.05;;;1.00;;
22955;SDS011;40888;48.148;11.526;2023-04-22T08:59:05;0.90;;;0.80;;
22955;SDS011;40888;48.148;11.526;2023-04-22T09:01:31;0.80;;;0.75;;
22955;SDS011;40888;48.148;11.526;2023-04-22T09:03:58;0.80;;;0.77;;
22955;SDS011;40888;48.148;11.526;2023-04-22T09:06:24;0.68;;;0.68;;
22955;SDS011;40888;48.148;11.526;2023-04-22T09:08:51;0.60;;;0.60;;
22955;SDS011;40888;48.148;11.526;2023-04-22T09:11:17;1.17;;;0.90;;
22955;SDS011;40888;48.148;11.526;2023-04-22T09:13:43;0.90;;;0.90;;
22955;SDS011;40888;48.148;11.526;2023-04-22T09:16:09;1.23;;;0.70;;
22955;SDS011;40888;48.148;11.526;2023-04-22T09:18:39;0.80;;;0.80;;
22955;SDS011;40888;48.148;11.526;2023-04-22T09:21:09;1.35;;;1.25;;
22955;SDS011;40888;48.148;11.526;2023-04-22T09:24:10;1.20;;;0.60;;
22955;SDS011;40888;48.148;11.526;2023-04-22T09:26:30;2.95;;;1.00;;
22955;SDS011;40888;48.148;11.526;2023-04-22T09:28:57;2.72;;;1.20;;
22955;SDS011;40888;48.148;11.526;2023-04-22T09:31:24;2.40;;;1.25;;
22955;SDS011;40888;48.148;11.526;2023-04-22T09:33:52;1.10;;;1.02;;
22955;SDS011;40888;48.148;11.526;2023-04-22T09:38:55;3.97;;;0.88;;
22955;SDS011;40888;48.148;11.526;2023-04-22T09:41:30;1.35;;;0.90;;
22955;SDS011;40888;48.148;11.526;2023-04-22T09:43:57;2.35;;;0.98;;
22955;SDS011;40888;48.148;11.526;2023-04-22T09:46:25;1.23;;;0.90;;
22955;SDS011;40888;48.148;11.526;2023-04-22T09:48:53;0.90;;;0.90;;
22955;SDS011;40888;48.148;11.526;2023-04-22T09:51:19;1.08;;;0.90;;
22955;SDS011;40888;48.148;11.526;2023-04-22T09:53:55;0.80;;;0.80;;
22955;SDS011;40888;48.148;11.526;2023-04-22T09:56:38;0.80;;;0.70;;
22955;SDS011;40888;48.148;11.526;2023-04-22T09:59:05;0.90;;;0.90;;
22955;SDS011;40888;48.148;11.526;2023-04-22T10:01:34;1.30;;;0.90;;
22955;SDS011;40888;48.148;11.526;2023-04-22T10:04:01;0.68;;;0.68;;
22955;SDS011;40888;48.148;11.526;2023-04-22T10:06:27;1.70;;;0.80;;
22955;SDS011;40888;48.148;11.526;2023-04-22T10:08:57;1.05;;;0.93;;
22955;SDS011;40888;48.148;11.526;2023-04-22T10:11:24;0.75;;;0.75;;
22955;SDS011;40888;48.148;11.526;2023-04-22T10:13:49;0.80;;;0.80;;
22955;SDS011;40888;48.148;11.526;2023-04-22T10:16:15;0.63;;;0.63;;
22955;SDS011;40888;48.148;11.526;2023-04-22T10:18:45;1.30;;;0.70;;
22955;SDS011;40888;48.148;11.526;2023-04-22T10:21:12;1.90;;;0.88;;
22955;SDS011;40888;48.148;11.526;2023-04-22T10:23:42;2.38;;;1.00;;
22955;SDS011;40888;48.148;11.526;2023-04-22T10:26:10;1.40;;;1.00;;
22955;SDS011;40888;48.148;11.526;2023-04-22T10:28:39;1.00;;;1.00;;
22955;SDS011;40888;48.148;11.526;2023-04-22T10:31:20;3.00;;;1.00;;
22955;SDS011;40888;48.148;11.526;2023-04-22T10:33:47;1.13;;;1.02;;
22955;SDS011;40888;48.148;11.526;2023-04-22T10:38:39;2.60;;;1.35;;
22955;SDS011;40888;48.148;11.526;2023-04-22T10:41:30;1.23;;;1.13;;
22955;SDS011;40888;48.148;11.526;2023-04-22T10:44:06;1.27;;;1.20;;
22955;SDS011;40888;48.148;11.526;2023-04-22T10:48:59;1.27;;;1.17;;
22955;SDS011;40888;48.148;11.526;2023-04-22T10:51:50;0.93;;;0.93;;
22955;SDS011;40888;48.148;11.526;2023-04-22T10:57:05;1.30;;;1.17;;
22955;SDS011;40888;48.148;11.526;2023-04-22T10:59:53;1.15;;;1.05;;
22955;SDS011;40888;48.148;11.526;2023-04-22T11:02:20;1.27;;;0.98;;
22955;SDS011;40888;48.148;11.526;2023-04-22T11:04:47;1.08;;;0.98;;
22955;SDS011;40888;48.148;11.526;2023-04-22T11:09:51;1.50;;;1.17;;
22955;SDS011;40888;48.148;11.526;2023-04-22T11:15:09;2.35;;;1.00;;
22955;SDS011;40888;48.148;11.526;2023-04-22T11:17:35;0.82;;;0.82;;
22955;SDS011;40888;48.148;11.526;2023-04-22T11:20:02;1.00;;;0.93;;
22955;SDS011;40888;48.148;11.526;2023-04-22T11:22:33;1.35;;;0.90;;
22955;SDS011;40888;48.148;11.526;2023-04-22T11:25:04;1.25;;;1.10;;
22955;SDS011;40888;48.148;11.526;2023-04-22T11:27:31;1.20;;;0.85;;
22955;SDS011;40888;48.148;11.526;2023-04-22T11:30:07;1.67;;;0.85;;
22955;SDS011;40888;48.148;11.526;2023-04-22T11:32:35;1.10;;;1.10;;
22955;SDS011;40888;48.148;11.526;2023-04-22T11:35:05;1.10;;;1.10;;
22955;SDS011;40888;48.148;11.526;2023-04-22T11:40:30;0.85;;;0.85;;
22955;SDS011;40888;48.148;11.526;2023-04-22T11:42:58;2.00;;;0.80;;
22955;SDS011;40888;48.148;11.526;2023-04-22T11:45:26;0.88;;;0.88;;
22955;SDS011;40888;48.148;11.526;2023-04-22T11:47:53;1.48;;;1.00;;
22955;SDS011;40888;48.148;11.526;2023-04-22T11:50:24;0.80;;;0.80;;
22955;SDS011;40888;48.148;11.526;2023-04-22T11:52:52;0.90;;;0.90;;
22955;SDS011;40888;48.148;11.526;2023-04-22T11:58:07;2.58;;;1.10;;
22955;SDS011;40888;48.148;11.526;2023-04-22T12:00:35;1.00;;;0.93;;
22955;SDS011;40888;48.148;11.526;2023-04-22T12:03:06;1.23;;;1.13;;
22955;SDS011;40888;48.148;11.526;2023-04-22T12:05:37;0.88;;;0.88;;
22955;SDS011;40888;48.148;11.526;2023-04-22T12:08:05;0.85;;;0.85;;
22955;SDS011;40888;48.148;11.526;2023-04-22T12:10:51;1.00;;;1.00;;
22955;SDS011;40888;48.148;11.526;2023-04-22T12:13:19;1.08;;;0.98;;
22955;SDS011;40888;48.148;11.526;2023-04-22T12:15:57;0.80;;;0.80;;
22955;SDS011;40888;48.148;11.526;2023-04-22T12:18:28;2.83;;;1.02;;
22955;SDS011;40888;48.148;11.526;2023-04-22T12:21:07;1.17;;;1.08;;
22955;SDS011;40888;48.148;11.526;2023-04-22T12:23:40;1.65;;;0.68;;
22955;SDS011;40888;48.148;11.526;2023-04-22T12:26:07;1.05;;;0.95;;
22955;SDS011;40888;48.148;11.526;2023-04-22T12:28:33;0.90;;;0.90;;
22955;SDS011;40888;48.148;11.526;2023-04-22T12:31:01;0.88;;;0.88;;
22955;SDS011;40888;48.148;11.526;2023-04-22T12:33:26;1.52;;;1.08;;
22955;SDS011;40888;48.148;11.526;2023-04-22T12:35:52;1.10;;;1.00;;
22955;SDS011;40888;48.148;11.526;2023-04-22T12:38:18;1.27;;;0.82;;
22955;SDS011;40888;48.148;11.526;2023-04-22T12:40:44;0.75;;;0.75;;
22955;SDS011;40888;48.148;11.526;2023-04-22T12:43:09;2.58;;;0.90;;
22955;SDS011;40888;48.148;11.526;2023-04-22T12:45:36;1.30;;;1.10;;
22955;SDS011;40888;48.148;11.526;2023-04-22T12:48:02;1.00;;;0.90;;
22955;SDS011;40888;48.148;11.526;2023-04-22T12:50:28;0.80;;;0.80;;
22955;SDS011;40888;48.148;11.526;2023-04-22T12:52:54;3.10;;;0.90;;
22955;SDS011;40888;48.148;11.526;2023-04-22T12:55:19;1.42;;;1.00;;
22955;SDS011;40888;48.148;11.526;2023-04-22T12:57:46;1.45;;;1.02;;
22955;SDS011;40888;48.148;11.526;2023-04-22T13:00:14;2.45;;;0.95;;
22955;SDS011;40888;48.148;11.526;2023-04-22T13:02:41;2.53;;;0.98;;
22955;SDS011;40888;48.148;11.526;2023-04-22T13:05:07;1.40;;;1.00;;
22955;SDS011;40888;48.148;11.526;2023-04-22T13:07:34;1.38;;;1.02;;
22955;SDS011;40888;48.148;11.526;2023-04-22T13:10:00;1.80;;;0.90;;
22955;SDS011;40888;48.148;11.526;2023-04-22T13:12:26;1.58;;;0.90;;
22955;SDS011;40888;48.148;11.526;2023-04-22T13:14:52;3.33;;;1.08;;
22955;SDS011;40888;48.148;11.526;2023-04-22T13:17:18;1.50;;;1.00;;
22955;SDS011;40888;48.148;11.526;2023-04-22T13:19:43;1.63;;;1.00;;
22955;SDS011;40888;48.148;11.526;2023-04-22T13:22:09;4.45;;;1.30;;
22955;SDS011;40888;48.148;11.526;2023-04-22T13:24:35;1.20;;;1.10;;
22955;SDS011;40888;48.148;11.526;2023-04-22T13:27:01;1.45;;;1.10;;
22955;SDS011;40888;48.148;11.526;2023-04-22T13:29:27;2.25;;;1.27;;
22955;SDS011;40888;48.148;11.526;2023-04-22T13:31:53;1.50;;;1.20;;
22955;SDS011;40888;48.148;11.526;2023-04-22T13:34:18;1.58;;;0.90;;
22955;SDS011;40888;48.148;11.526;2023-04-22T13:36:44;2.13;;;1.05;;
22955;SDS011;40888;48.148;11.526;2023-04-22T13:39:11;1.75;;;1.10;;
22955;SDS011;40888;48.148;11.526;2023-04-22T13:41:37;4.95;;;3.72;;
22955;SDS011;40888;48.148;11.526;2023-04-22T13:44:03;1.30;;;1.25;;
22955;SDS011;40888;48.148;11.526;2023-04-22T13:46:29;3.25;;;1.90;;
22955;SDS011;40888;48.148;11.526;2023-04-22T13:48:55;1.27;;;1.17;;
22955;SDS011;40888;48.148;11.526;2023-04-22T13:51:21;1.50;;;1.30;;
22955;SDS011;40888;48.148;11.526;2023-04-22T13:53:47;1.33;;;1.17;;
22955;SDS011;40888;48.148;11.526;2023-04-22T13:56:12;2.47;;;1.23;;
22955;SDS011;40888;48.148;11.526;2023-04-22T13:58:39;1.40;;;1.30;;
22955;SDS011;40888;48.148;11.526;2023-04-22T14:01:06;1.80;;;1.60;;
22955;SDS011;40888;48.148;11.526;2023-04-22T14:03:33;1.00;;;1.00;;
22955;SDS011;40888;48.148;11.526;2023-04-22T14:05:59;1.05;;;1.05;;
22955;SDS011;40888;48.148;11.526;2023-04-22T14:08:25;1.30;;;1.20;;
22955;SDS011;40888;48.148;11.526;2023-04-22T14:10:52;1.20;;;1.10;;
22955;SDS011;40888;48.148;11.526;2023-04-22T14:13:18;1.45;;;1.00;;
22955;SDS011;40888;48.148;11.526;2023-04-22T14:15:45;0.95;;;0.90;;
22955;SDS011;40888;48.148;11.526;2023-04-22T14:18:11;7.57;;;1.50;;
22955;SDS011;40888;48.148;11.526;2023-04-22T14:20:37;2.70;;;1.30;;
22955;SDS011;40888;48.148;11.526;2023-04-22T14:23:03;1.30;;;1.20;;
22955;SDS011;40888;48.148;11.526;2023-04-22T14:25:29;1.33;;;1.20;;
22955;SDS011;40888;48.148;11.526;2023-04-22T14:27:56;4.15;;;1.38;;
22955;SDS011;40888;48.148;11.526;2023-04-22T14:30:21;1.05;;;0.95;;
22955;SDS011;40888;48.148;11.526;2023-04-22T14:32:48;1.30;;;1.20;;
22955;SDS011;40888;48.148;11.526;2023-04-22T14:35:14;1.10;;;1.00;;
22955;SDS011;40888;48.148;11.526;2023-04-22T14:37:40;3.30;;;1.27;;
22955;SDS011;40888;48.148;11.526;2023-04-22T14:40:07;3.28;;;1.25;;
22955;SDS011;40888;48.148;11.526;2023-04-22T14:42:33;4.93;;;1.30;;
22955;SDS011;40888;48.148;11.526;2023-04-22T14:45:00;1.10;;;1.10;;
22955;SDS011;40888;48.148;11.526;2023-04-22T14:47:25;3.20;;;1.20;;
22955;SDS011;40888;48.148;11.526;2023-04-22T14:49:51;2.05;;;1.20;;
22955;SDS011;40888;48.148;11.526;2023-04-22T14:52:17;2.25;;;1.33;;